Time;durP1;ratioP1;P1;durP2;ratioP2;P2;SDS_P1;SDS_P2;PMS_P1;PMS_P2;Temp;Humidity;BMP_temperature;BMP_pressure;BME280_temperature;BME280_humidity;BME280_pressure;Samples;Min_cycle;Max_cycle;Signal;HPM_P1;HPM_P2
2023/09/28 00:02:54;;;;;;;3.50;2.83;;;18.80;99.90;;;;;;4862459;29;20665;-62
2023/09/28 00:05:20;;;;;;;3.38;2.53;;;18.80;99.90;;;;;;4861806;29;20320;-62
2023/09/28 00:07:47;;;;;;;4.28;2.80;;;18.80;99.90;;;;;;4861931;29;20178;-62
2023/09/28 00:10:15;;;;;;;5.97;2.67;;;18.70;99.90;;;;;;4861860;29;20589;-62
2023/09/28 00:12:49;;;;;;;4.20;3.00;;;18.70;99.90;;;;;;4861676;29;20178;-62
2023/09/28 00:15:16;;;;;;;4.63;2.88;;;18.70;99.90;;;;;;4861966;29;20253;-62
2023/09/28 00:17:42;;;;;;;5.32;3.05;;;18.70;99.90;;;;;;4861907;29;20186;-62
2023/09/28 00:20:13;;;;;;;4.80;3.03;;;18.60;99.90;;;;;;4861531;29;20708;-62
2023/09/28 00:22:42;;;;;;;5.35;2.80;;;18.70;99.90;;;;;;4861610;29;20186;-62
2023/09/28 00:25:11;;;;;;;3.67;3.15;;;18.50;99.90;;;;;;4845505;29;20196;-62
2023/09/28 00:27:39;;;;;;;3.80;2.95;;;18.60;99.90;;;;;;4861708;29;20233;-62
2023/09/28 00:30:06;;;;;;;3.72;2.85;;;18.60;99.90;;;;;;4861696;29;20379;-62
2023/09/28 00:32:33;;;;;;;5.57;3.55;;;18.60;99.90;;;;;;4861571;29;20197;-62
2023/09/28 00:34:58;;;;;;;4.85;3.10;;;18.60;99.90;;;;;;4861418;29;20301;-61
2023/09/28 00:37:24;;;;;;;4.75;2.95;;;18.50;99.90;;;;;;4861396;29;20748;-62
2023/09/28 00:39:50;;;;;;;6.20;3.42;;;18.50;99.90;;;;;;4861280;29;20186;-62
2023/09/28 00:42:16;;;;;;;4.80;3.30;;;18.50;99.90;;;;;;4861525;29;20651;-62
2023/09/28 00:44:42;;;;;;;3.65;3.03;;;18.50;99.90;;;;;;4861456;29;20265;-62
2023/09/28 00:47:10;;;;;;;5.15;3.08;;;18.60;99.90;;;;;;4844834;29;20646;-62
2023/09/28 00:49:36;;;;;;;3.95;3.00;;;18.60;99.90;;;;;;4861319;29;20181;-62
2023/09/28 00:52:03;;;;;;;5.90;3.80;;;18.50;99.90;;;;;;4861013;29;20178;-62
2023/09/28 00:54:29;;;;;;;4.63;3.25;;;18.50;99.90;;;;;;4861043;29;20208;-62
2023/09/28 00:56:55;;;;;;;3.75;3.20;;;18.50;99.90;;;;;;4861325;29;20190;-62
2023/09/28 00:59:21;;;;;;;5.80;3.08;;;18.40;99.90;;;;;;4861103;29;20584;-61
2023/09/28 01:01:47;;;;;;;6.85;3.50;;;18.30;99.90;;;;;;4861107;29;20218;-62
2023/09/28 01:04:13;;;;;;;6.57;3.35;;;18.40;99.90;;;;;;4861139;29;20216;-62
2023/09/28 01:06:39;;;;;;;4.03;3.10;;;18.30;99.90;;;;;;4860926;29;20261;-63
2023/09/28 01:09:09;;;;;;;3.45;3.15;;;18.30;99.90;;;;;;4860874;29;20246;-62
2023/09/28 01:11:36;;;;;;;5.38;3.60;;;18.30;99.90;;;;;;4861166;29;20196;-62
2023/09/28 01:14:03;;;;;;;3.75;3.30;;;18.30;99.90;;;;;;4861218;29;20516;-62
2023/09/28 01:16:29;;;;;;;6.15;3.75;;;18.30;99.90;;;;;;4861101;29;20670;-62
2023/09/28 01:18:54;;;;;;;7.10;3.70;;;18.30;99.90;;;;;;4860966;29;20208;-62
2023/09/28 01:21:20;;;;;;;3.85;3.45;;;18.30;99.90;;;;;;4844338;29;20220;-62
2023/09/28 01:23:46;;;;;;;5.22;3.40;;;18.20;99.90;;;;;;4860884;29;20190;-62
2023/09/28 01:26:11;;;;;;;4.88;3.58;;;18.20;99.90;;;;;;4861085;29;20715;-62
2023/09/28 01:28:38;;;;;;;6.05;3.45;;;18.20;99.90;;;;;;4860989;29;20682;-62
2023/09/28 01:31:04;;;;;;;4.18;3.55;;;18.20;99.90;;;;;;4860712;29;20635;-62
2023/09/28 01:33:30;;;;;;;5.05;3.40;;;18.20;99.90;;;;;;4860917;29;20211;-63
2023/09/28 01:35:55;;;;;;;4.93;3.47;;;18.20;99.90;;;;;;4860602;29;20258;-62
2023/09/28 01:38:48;;;;;;;5.15;3.35;;;18.20;99.90;;;;;;4860702;29;20182;-62
2023/09/28 01:41:14;;;;;;;4.13;3.42;;;18.20;99.90;;;;;;4860863;29;20712;-63
2023/09/28 01:43:40;;;;;;;4.90;3.78;;;18.20;99.90;;;;;;4860774;29;20201;-62
2023/09/28 01:46:06;;;;;;;5.53;3.67;;;18.10;99.90;;;;;;4860721;29;20551;-62
2023/09/28 01:48:31;;;;;;;5.72;3.92;;;18.20;99.90;;;;;;4860691;29;20535;-62
2023/09/28 01:50:57;;;;;;;5.28;3.40;;;18.20;99.90;;;;;;4861075;29;20643;-62
2023/09/28 01:53:23;;;;;;;3.90;3.25;;;18.20;99.90;;;;;;4860836;29;20174;-62
2023/09/28 01:55:50;;;;;;;3.47;3.17;;;18.20;99.90;;;;;;4860571;29;20579;-62
2023/09/28 01:58:16;;;;;;;4.03;3.45;;;18.10;99.90;;;;;;4860635;29;20269;-62
2023/09/28 02:00:46;;;;;;;4.40;3.45;;;18.10;99.90;;;;;;4860610;29;20222;-62
2023/09/28 02:03:14;;;;;;;7.65;3.88;;;18.10;99.90;;;;;;4860445;29;20582;-62
2023/09/28 02:05:40;;;;;;;5.35;3.80;;;18.00;99.90;;;;;;4863145;29;20293;-62
2023/09/28 02:08:06;;;;;;;4.50;3.65;;;18.00;99.90;;;;;;4864142;29;20182;-62
2023/09/28 02:10:32;;;;;;;4.50;3.55;;;18.10;99.90;;;;;;4847592;29;20264;-62
2023/09/28 02:12:59;;;;;;;5.07;3.90;;;18.00;99.90;;;;;;4863936;29;20230;-62
2023/09/28 02:15:24;;;;;;;4.85;3.90;;;18.00;99.90;;;;;;4863810;29;20206;-62
2023/09/28 02:17:50;;;;;;;4.35;3.95;;;18.10;99.90;;;;;;4863737;29;20277;-62
2023/09/28 02:20:22;;;;;;;5.97;3.83;;;18.00;99.90;;;;;;4863900;29;20189;-62
2023/09/28 02:22:50;;;;;;;5.65;3.67;;;18.10;99.90;;;;;;4863899;29;20186;-62
2023/09/28 02:25:22;;;;;;;5.13;3.65;;;18.20;99.90;;;;;;4863568;29;20603;-62
2023/09/28 02:27:49;;;;;;;4.05;3.55;;;18.20;99.90;;;;;;4863577;29;20182;-62
2023/09/28 02:30:19;;;;;;;7.57;4.03;;;18.20;99.90;;;;;;4863518;29;20214;-63
2023/09/28 02:32:49;;;;;;;6.07;3.38;;;18.20;99.90;;;;;;4863712;29;20189;-61
2023/09/28 02:35:16;;;;;;;8.00;4.38;;;18.20;99.90;;;;;;4863605;29;20214;-62
2023/09/28 02:37:48;;;;;;;5.88;3.53;;;18.20;99.90;;;;;;4863524;29;20194;-62
2023/09/28 02:40:14;;;;;;;8.18;3.28;;;18.30;99.90;;;;;;4863564;29;20227;-62
2023/09/28 02:42:42;;;;;;;6.15;3.33;;;18.30;99.90;;;;;;4863318;29;20272;-62
2023/09/28 02:45:11;;;;;;;5.13;3.03;;;18.40;99.90;;;;;;4863259;29;20197;-62
2023/09/28 02:47:45;;;;;;;6.50;3.00;;;18.30;99.90;;;;;;4863501;29;20219;-62
2023/09/28 02:50:13;;;;;;;10.98;2.90;;;18.40;99.90;;;;;;4863317;29;20189;-62
2023/09/28 02:52:43;;;;;;;8.63;3.13;;;18.40;99.90;;;;;;4863275;29;20185;-62
2023/09/28 02:55:13;;;;;;;7.88;3.13;;;18.50;99.90;;;;;;4863106;29;20426;-61
2023/09/28 02:57:39;;;;;;;6.95;3.25;;;18.40;99.90;;;;;;4863104;29;20178;-62
2023/09/28 03:00:28;;;;;;;7.45;3.22;;;18.30;99.90;;;;;;4863025;29;20655;-62
2023/09/28 03:02:56;;;;;;;5.93;2.58;;;18.30;99.90;;;;;;4863084;29;20176;-62
2023/09/28 03:05:23;;;;;;;6.07;2.78;;;18.30;99.90;;;;;;4863145;29;20230;-62
2023/09/28 03:07:49;;;;;;;10.18;3.05;;;18.20;99.90;;;;;;4862921;29;20194;-62
2023/09/28 03:10:15;;;;;;;7.30;2.97;;;18.20;99.90;;;;;;4863075;29;20190;-62
2023/09/28 03:12:42;;;;;;;5.60;2.67;;;18.20;99.90;;;;;;4863069;29;20197;-62
2023/09/28 03:15:10;;;;;;;8.60;2.97;;;18.10;99.90;;;;;;4862854;29;20214;-62
2023/09/28 03:17:40;;;;;;;8.05;2.75;;;18.00;99.90;;;;;;4862907;29;20182;-62
2023/09/28 03:20:17;;;;;;;8.63;3.03;;;17.90;99.90;;;;;;4863011;29;20191;-62
2023/09/28 03:22:44;;;;;;;8.23;3.17;;;17.80;99.90;;;;;;4862543;29;20193;-62
2023/09/28 03:25:16;;;;;;;12.63;3.72;;;17.90;99.90;;;;;;4862764;29;20220;-61
2023/09/28 03:27:42;;;;;;;7.68;3.03;;;17.70;99.90;;;;;;4862614;29;20524;-62
2023/09/28 03:30:10;;;;;;;9.05;3.22;;;17.70;99.90;;;;;;4862626;29;20174;-62
2023/09/28 03:32:40;;;;;;;8.68;2.80;;;17.70;99.90;;;;;;4862432;29;20190;-62
2023/09/28 03:35:10;;;;;;;9.93;3.42;;;17.70;99.90;;;;;;4862352;29;20202;-62
2023/09/28 03:37:36;;;;;;;11.13;3.20;;;17.60;99.90;;;;;;4862641;29;20190;-62
2023/09/28 03:40:09;;;;;;;10.10;3.17;;;17.60;99.90;;;;;;4862404;29;20238;-62
2023/09/28 03:42:42;;;;;;;11.55;3.17;;;17.40;99.90;;;;;;4862401;29;20186;-62
2023/09/28 03:45:21;;;;;;;7.93;2.85;;;17.30;99.90;;;;;;4862341;29;20185;-62
2023/09/28 03:47:50;;;;;;;8.10;3.35;;;17.30;99.90;;;;;;4862225;29;20170;-62
2023/09/28 03:50:16;;;;;;;10.32;3.40;;;17.30;99.90;;;;;;4862357;29;20178;-62
2023/09/28 03:52:42;;;;;;;11.18;3.15;;;17.30;99.90;;;;;;4862233;29;20540;-62
2023/09/28 03:55:16;;;;;;;11.00;3.47;;;17.30;99.90;;;;;;4862075;29;20261;-62
2023/09/28 03:57:45;;;;;;;13.85;3.70;;;17.30;99.90;;;;;;4862063;29;20186;-62
2023/09/28 04:00:14;;;;;;;13.18;3.67;;;17.20;99.90;;;;;;4845217;29;20194;-62
2023/09/28 04:02:41;;;;;;;11.43;3.63;;;17.10;99.90;;;;;;4862150;29;20187;-62
2023/09/28 04:05:08;;;;;;;13.20;3.63;;;17.10;99.90;;;;;;4861963;29;20663;-62
2023/09/28 04:07:34;;;;;;;11.43;3.40;;;17.00;99.90;;;;;;4861974;29;20182;-61
2023/09/28 04:09:59;;;;;;;12.80;4.05;;;17.00;99.90;;;;;;4861840;29;20242;-62
2023/09/28 04:12:27;;;;;;;10.23;3.58;;;17.00;99.90;;;;;;4861747;29;20189;-61
2023/09/28 04:14:53;;;;;;;13.60;3.70;;;16.90;99.90;;;;;;4861668;29;20718;-62
2023/09/28 04:17:19;;;;;;;15.02;4.20;;;16.90;99.90;;;;;;4861855;29;20285;-63
2023/09/28 04:19:44;;;;;;;15.35;4.53;;;16.80;99.90;;;;;;4862050;29;20182;-61
2023/09/28 04:22:10;;;;;;;13.93;4.20;;;16.80;99.90;;;;;;4861768;29;20235;-63
2023/09/28 04:24:36;;;;;;;13.90;4.20;;;16.70;99.90;;;;;;4861714;29;20193;-63
2023/09/28 04:27:01;;;;;;;18.15;4.40;;;16.70;99.90;;;;;;4861133;29;20186;-63
2023/09/28 04:29:27;;;;;;;12.93;4.65;;;16.60;99.90;;;;;;4860976;29;20658;-63
2023/09/28 04:31:54;;;;;;;15.23;4.28;;;16.60;99.90;;;;;;4861652;29;20265;-63
2023/09/28 04:34:20;;;;;;;12.38;4.80;;;16.50;99.90;;;;;;4861523;29;20178;-63
2023/09/28 04:36:46;;;;;;;13.77;3.95;;;16.50;99.90;;;;;;4861213;29;20181;-62
2023/09/28 04:39:12;;;;;;;13.82;4.38;;;16.40;99.90;;;;;;4861125;29;20210;-63
2023/09/28 04:41:38;;;;;;;14.80;4.00;;;16.40;99.90;;;;;;4861306;29;20578;-63
2023/09/28 04:44:05;;;;;;;17.17;4.43;;;16.50;99.90;;;;;;4861500;29;20186;-63
2023/09/28 04:46:31;;;;;;;12.98;4.32;;;16.40;99.90;;;;;;4861445;29;20271;-63
2023/09/28 04:48:57;;;;;;;15.52;4.32;;;16.40;99.90;;;;;;4861353;29;20170;-63
2023/09/28 04:51:23;;;;;;;17.27;4.88;;;16.40;99.90;;;;;;4861313;29;20189;-63
2023/09/28 04:53:48;;;;;;;19.60;5.15;;;16.30;99.90;;;;;;4861210;29;20193;-63
2023/09/28 04:56:17;;;;;;;13.93;4.78;;;16.40;99.90;;;;;;4861112;29;20690;-63
2023/09/28 04:58:43;;;;;;;14.02;4.35;;;16.40;99.90;;;;;;4861310;29;20182;-63
2023/09/28 05:01:10;;;;;;;15.57;5.03;;;16.40;99.90;;;;;;4844461;29;20182;-63
2023/09/28 05:03:36;;;;;;;14.55;4.68;;;16.40;99.90;;;;;;4860740;29;20206;-63
2023/09/28 05:06:01;;;;;;;14.55;4.22;;;16.40;99.90;;;;;;4860911;29;20819;-64
2023/09/28 05:08:27;;;;;;;16.77;4.65;;;16.30;99.90;;;;;;4861168;29;20186;-65
2023/09/28 05:10:53;;;;;;;16.52;4.63;;;16.30;99.90;;;;;;4860940;29;20181;-63
2023/09/28 05:13:21;;;;;;;18.60;4.90;;;16.30;99.90;;;;;;4861108;29;20186;-63
2023/09/28 05:15:47;;;;;;;15.35;4.38;;;16.20;99.90;;;;;;4860974;29;20221;-63
2023/09/28 05:18:12;;;;;;;17.02;4.82;;;16.30;99.90;;;;;;4860939;29;20552;-64
2023/09/28 05:20:39;;;;;;;14.98;5.03;;;16.30;99.90;;;;;;4860997;29;20177;-63
2023/09/28 05:23:06;;;;;;;13.65;4.30;;;16.30;99.90;;;;;;4860971;29;20189;-64
2023/09/28 05:25:33;;;;;;;11.95;3.92;;;16.20;99.90;;;;;;4860844;29;20221;-64
2023/09/28 05:27:59;;;;;;;15.82;4.70;;;16.30;99.90;;;;;;4860964;29;20218;-64
2023/09/28 05:30:25;;;;;;;15.02;4.38;;;16.30;99.90;;;;;;4860955;29;20178;-64
2023/09/28 05:32:51;;;;;;;12.93;4.68;;;16.20;99.90;;;;;;4860861;29;20189;-64
2023/09/28 05:35:17;;;;;;;13.95;4.18;;;16.20;99.90;;;;;;4860665;29;20202;-64
2023/09/28 05:37:43;;;;;;;21.50;5.43;;;16.20;99.90;;;;;;4860627;29;20592;-63
2023/09/28 05:40:09;;;;;;;17.67;4.28;;;16.20;99.90;;;;;;4862796;29;20306;-63
2023/09/28 05:42:36;;;;;;;14.38;4.15;;;16.20;99.90;;;;;;4864575;29;20175;-64
2023/09/28 05:45:02;;;;;;;20.02;4.97;;;16.20;99.90;;;;;;4864556;29;20190;-64
2023/09/28 05:47:28;;;;;;;16.23;4.60;;;16.10;99.90;;;;;;4864347;29;20190;-64
2023/09/28 05:49:54;;;;;;;13.82;4.32;;;16.20;99.90;;;;;;4864270;29;20663;-64
2023/09/28 05:52:20;;;;;;;12.82;4.53;;;16.10;99.90;;;;;;4864190;29;20189;-64
2023/09/28 05:54:46;;;;;;;13.68;4.40;;;16.10;99.90;;;;;;4864075;29;20569;-63
2023/09/28 05:57:13;;;;;;;15.93;4.65;;;16.20;99.90;;;;;;4864284;29;20190;-63
2023/09/28 05:59:39;;;;;;;14.93;4.45;;;16.10;99.90;;;;;;4864235;29;20197;-63
2023/09/28 06:02:05;;;;;;;13.93;4.75;;;16.10;99.90;;;;;;4864074;29;20182;-63
2023/09/28 06:04:33;;;;;;;16.40;4.15;;;16.20;99.90;;;;;;4863919;29;20273;-64
2023/09/28 06:06:59;;;;;;;12.27;4.07;;;16.10;99.90;;;;;;4864438;29;20190;-63
2023/09/28 06:09:26;;;;;;;14.27;4.65;;;16.10;99.90;;;;;;4863886;29;20202;-63
2023/09/28 06:11:52;;;;;;;17.08;4.43;;;16.20;99.90;;;;;;4863831;29;20814;-64
2023/09/28 06:14:19;;;;;;;21.10;5.32;;;16.20;99.90;;;;;;4863910;29;20225;-63
2023/09/28 06:16:45;;;;;;;13.68;4.40;;;16.10;99.90;;;;;;4863965;29;20190;-63
2023/09/28 06:19:13;;;;;;;16.48;4.80;;;16.10;99.90;;;;;;4863768;29;20186;-63
2023/09/28 06:21:39;;;;;;;18.42;4.72;;;16.20;99.90;;;;;;4863746;29;20178;-63
2023/09/28 06:24:05;;;;;;;18.23;5.47;;;16.10;99.90;;;;;;4863584;29;20178;-63
2023/09/28 06:26:32;;;;;;;18.63;4.70;;;16.10;99.90;;;;;;4863800;29;20189;-64
2023/09/28 06:28:58;;;;;;;18.77;5.00;;;16.20;99.90;;;;;;4863695;29;20186;-63
2023/09/28 06:31:23;;;;;;;14.95;4.20;;;16.20;99.90;;;;;;4863933;29;20179;-63
2023/09/28 06:33:49;;;;;;;15.50;4.40;;;16.20;99.90;;;;;;4863615;29;20209;-67
2023/09/28 06:36:16;;;;;;;17.70;5.10;;;16.30;99.90;;;;;;4863425;29;20213;-64
2023/09/28 06:38:42;;;;;;;13.73;4.50;;;16.30;99.90;;;;;;4863359;29;20185;-63
2023/09/28 06:41:08;;;;;;;16.38;4.93;;;16.40;99.90;;;;;;4863564;29;20182;-63
2023/09/28 06:43:35;;;;;;;23.20;5.47;;;16.50;99.90;;;;;;4863714;29;20640;-63
2023/09/28 06:46:01;;;;;;;21.13;5.30;;;16.50;99.90;;;;;;4863399;29;20245;-64
2023/09/28 06:48:27;;;;;;;20.90;5.45;;;16.60;99.90;;;;;;4863269;29;20197;-64
2023/09/28 06:50:59;;;;;;;14.63;4.55;;;16.80;99.90;;;;;;4862880;29;20189;-64
2023/09/28 06:53:25;;;;;;;18.55;4.40;;;16.80;99.90;;;;;;4863440;29;20163;-63
2023/09/28 06:55:52;;;;;;;18.80;4.93;;;16.90;99.90;;;;;;4863219;29;20210;-64
2023/09/28 06:58:19;;;;;;;15.70;4.60;;;17.10;99.90;;;;;;4846862;29;20186;-64
2023/09/28 07:00:45;;;;;;;18.02;5.88;;;17.10;99.90;;;;;;4863180;29;20175;-63
2023/09/28 07:03:13;;;;;;;17.27;4.78;;;17.30;99.90;;;;;;4863075;29;20639;-64
2023/09/28 07:05:39;;;;;;;15.88;4.60;;;17.30;99.90;;;;;;4862688;29;20225;-64
2023/09/28 07:08:06;;;;;;;20.35;5.07;;;17.50;99.90;;;;;;4863154;29;20185;-64
2023/09/28 07:10:35;;;;;;;14.35;4.45;;;17.50;99.90;;;;;;4863076;29;20277;-64
2023/09/28 07:13:03;;;;;;;17.58;4.97;;;17.70;99.90;;;;;;4862907;29;20186;-63
2023/09/28 07:15:33;;;;;;;17.38;4.75;;;17.80;99.90;;;;;;4862715;29;20217;-64
2023/09/28 07:18:00;;;;;;;19.45;5.07;;;17.70;99.90;;;;;;4862582;29;20182;-64
2023/09/28 07:20:27;;;;;;;16.17;4.65;;;17.80;99.90;;;;;;4862336;29;20194;-64
2023/09/28 07:22:53;;;;;;;18.38;4.38;;;17.80;99.90;;;;;;4862542;29;20174;-64
2023/09/28 07:25:19;;;;;;;20.83;5.13;;;17.90;99.90;;;;;;4862326;29;20189;-64
2023/09/28 07:27:47;;;;;;;19.58;4.75;;;17.80;99.90;;;;;;4862360;29;20696;-63
2023/09/28 07:30:14;;;;;;;13.38;4.38;;;17.90;99.90;;;;;;4862401;29;20190;-64
2023/09/28 07:32:40;;;;;;;17.67;4.50;;;17.90;99.90;;;;;;4862184;29;20569;-63
2023/09/28 07:35:09;;;;;;;17.98;5.28;;;17.90;99.90;;;;;;4862030;29;20209;-64
2023/09/28 07:37:35;;;;;;;18.77;5.00;;;17.90;99.90;;;;;;4862320;29;20242;-63
2023/09/28 07:40:01;;;;;;;16.95;4.95;;;18.00;99.90;;;;;;4862317;29;20182;-64
2023/09/28 07:42:27;;;;;;;19.15;4.70;;;18.10;99.90;;;;;;4862161;29;20546;-64
2023/09/28 07:44:53;;;;;;;15.85;4.30;;;18.10;99.90;;;;;;4862058;29;20636;-64
2023/09/28 07:47:19;;;;;;;17.30;4.70;;;18.20;99.90;;;;;;4861989;29;20612;-64
2023/09/28 07:49:45;;;;;;;16.80;5.00;;;18.10;99.90;;;;;;4845302;29;20174;-63
2023/09/28 07:52:11;;;;;;;20.40;4.78;;;18.20;99.90;;;;;;4862033;29;20182;-64
2023/09/28 07:54:37;;;;;;;19.05;5.00;;;18.30;99.90;;;;;;4862042;29;20209;-63
2023/09/28 07:57:04;;;;;;;13.02;4.60;;;18.20;99.90;;;;;;4861855;29;20183;-64
2023/09/28 07:59:34;;;;;;;18.17;4.90;;;18.30;99.90;;;;;;4861854;29;20178;-64
2023/09/28 08:02:00;;;;;;;16.15;4.90;;;18.40;99.90;;;;;;4861098;29;20190;-64
2023/09/28 08:04:26;;;;;;;19.00;4.70;;;18.30;99.90;;;;;;4861920;29;20652;-64
2023/09/28 08:06:52;;;;;;;17.00;4.82;;;18.40;99.90;;;;;;4861882;29;20178;-64
2023/09/28 08:09:19;;;;;;;16.48;4.72;;;18.40;99.90;;;;;;4861811;29;20185;-64
2023/09/28 08:11:50;;;;;;;20.08;4.90;;;18.50;99.90;;;;;;4861496;29;20185;-63
2023/09/28 08:14:21;;;;;;;17.55;4.35;;;18.40;99.90;;;;;;4844948;29;20181;-64
2023/09/28 08:16:48;;;;;;;15.95;4.47;;;18.40;99.90;;;;;;4861623;29;20209;-64
2023/09/28 08:19:14;;;;;;;17.77;4.55;;;18.50;99.90;;;;;;4861665;29;20182;-64
2023/09/28 08:21:40;;;;;;;17.45;4.72;;;18.60;99.90;;;;;;4861401;29;20182;-64
2023/09/28 08:24:07;;;;;;;19.90;4.53;;;18.60;99.90;;;;;;4844841;29;20573;-64
2023/09/28 08:26:34;;;;;;;17.88;4.55;;;18.70;99.90;;;;;;4861352;29;20268;-63
2023/09/28 08:29:00;;;;;;;15.05;4.03;;;18.70;99.90;;;;;;4861316;29;20552;-64
2023/09/28 08:31:29;;;;;;;15.82;4.60;;;18.80;99.90;;;;;;4861179;29;20269;-63
2023/09/28 08:33:55;;;;;;;18.80;5.05;;;18.80;99.90;;;;;;4861321;29;20586;-65
2023/09/28 08:36:24;;;;;;;15.60;4.85;;;18.80;99.90;;;;;;4861091;29;20209;-64
2023/09/28 08:38:50;;;;;;;16.27;4.40;;;18.70;99.90;;;;;;4861148;29;20639;-65
2023/09/28 08:41:23;;;;;;;17.98;4.63;;;18.70;99.90;;;;;;4860980;29;20182;-64
2023/09/28 08:44:04;;;;;;;17.77;4.38;;;18.70;99.90;;;;;;4860872;29;20174;-64
2023/09/28 08:46:38;;;;;;;16.17;4.43;;;18.80;99.90;;;;;;4861190;29;20197;-64
2023/09/28 08:49:06;;;;;;;16.55;4.60;;;18.80;99.90;;;;;;4861130;29;20210;-65
2023/09/28 08:51:32;;;;;;;13.95;4.20;;;18.90;99.90;;;;;;4860899;29;20189;-64
2023/09/28 08:54:03;;;;;;;18.75;4.47;;;18.90;99.90;;;;;;4844447;29;20197;-63
2023/09/28 08:56:31;;;;;;;11.88;4.40;;;18.90;99.90;;;;;;4861008;29;20214;-63
2023/09/28 08:58:58;;;;;;;15.10;4.10;;;19.00;99.90;;;;;;4860820;29;20660;-62
2023/09/28 09:01:26;;;;;;;17.08;4.28;;;19.10;99.90;;;;;;4861065;29;20177;-63
2023/09/28 09:03:52;;;;;;;13.90;4.40;;;19.20;99.90;;;;;;4861016;29;20661;-63
2023/09/28 09:06:20;;;;;;;18.85;4.60;;;19.20;99.90;;;;;;4860678;29;20270;-63
2023/09/28 09:08:49;;;;;;;19.38;4.32;;;19.10;99.90;;;;;;4860850;29;20178;-64
2023/09/28 09:11:18;;;;;;;13.95;4.50;;;19.10;99.90;;;;;;4861045;29;20178;-65
2023/09/28 09:13:54;;;;;;;17.73;4.20;;;19.20;99.90;;;;;;4860822;29;20646;-64
2023/09/28 09:16:24;;;;;;;11.93;3.50;;;19.30;99.90;;;;;;4860736;29;20695;-64
2023/09/28 09:18:52;;;;;;;16.15;4.47;;;19.40;99.90;;;;;;4860594;29;20648;-64
2023/09/28 09:21:18;;;;;;;18.48;4.53;;;19.30;99.90;;;;;;4860532;29;20267;-64
2023/09/28 09:24:00;;;;;;;13.85;3.80;;;19.40;99.90;;;;;;4860776;29;20543;-63
2023/09/28 09:26:26;;;;;;;14.88;4.13;;;19.20;99.90;;;;;;4860914;29;20189;-64
2023/09/28 09:28:58;;;;;;;17.15;3.92;;;19.30;99.90;;;;;;4860599;29;20182;-64
2023/09/28 09:31:25;;;;;;;14.57;3.67;;;19.30;99.90;;;;;;4860668;29;20174;-64
2023/09/28 09:33:50;;;;;;;14.25;3.75;;;19.30;99.90;;;;;;4860444;29;20281;-64
2023/09/28 09:36:18;;;;;;;15.30;3.42;;;19.30;99.90;;;;;;4860571;29;20300;-64
2023/09/28 09:38:44;;;;;;;16.70;3.95;;;19.50;99.90;;;;;;4860609;29;20198;-64
2023/09/28 09:41:11;;;;;;;15.05;4.10;;;19.60;99.90;;;;;;4860472;29;20190;-64
2023/09/28 09:43:40;;;;;;;14.82;4.30;;;19.80;99.90;;;;;;4860395;29;20193;-63
2023/09/28 09:46:06;;;;;;;10.60;2.97;;;19.90;99.90;;;;;;4860408;29;20181;-64
2023/09/28 09:48:42;;;;;;;16.40;3.70;;;19.90;99.90;;;;;;4860245;29;20189;-63
2023/09/28 09:51:13;;;;;;;14.15;3.78;;;20.10;99.90;;;;;;4860655;29;20294;-62
2023/09/28 09:53:41;;;;;;;16.73;3.95;;;20.10;99.90;;;;;;4860461;29;20183;-65
2023/09/28 09:56:07;;;;;;;15.45;3.63;;;20.00;99.90;;;;;;4860331;29;20218;-64
2023/09/28 09:58:40;;;;;;;12.50;3.88;;;20.00;99.90;;;;;;4860300;29;20194;-64
2023/09/28 10:01:15;;;;;;;12.23;3.45;;;20.00;99.90;;;;;;4860336;29;20228;-64
2023/09/28 10:03:51;;;;;;;11.13;3.42;;;20.10;99.90;;;;;;4860587;29;20177;-65
2023/09/28 10:06:21;;;;;;;10.50;3.13;;;20.00;99.90;;;;;;4860313;29;20234;-63
2023/09/28 10:08:49;;;;;;;10.35;2.90;;;20.10;99.90;;;;;;4860383;29;20589;-63
2023/09/28 10:11:17;;;;;;;11.68;3.20;;;20.10;99.90;;;;;;4860185;29;20198;-63
2023/09/28 10:13:43;;;;;;;13.43;3.38;;;20.10;99.90;;;;;;4860428;29;20277;-63
2023/09/28 10:16:12;;;;;;;14.55;3.60;;;20.10;99.90;;;;;;4860337;29;20272;-63
2023/09/28 10:18:43;;;;;;;13.27;3.65;;;20.20;99.90;;;;;;4860352;29;20193;-63
2023/09/28 10:21:09;;;;;;;10.73;3.38;;;20.30;99.90;;;;;;4860238;29;20193;-63
2023/09/28 10:23:35;;;;;;;10.95;3.25;;;20.40;99.90;;;;;;4860193;29;20209;-63
2023/09/28 10:26:08;;;;;;;11.85;3.17;;;20.60;99.90;;;;;;4861764;29;20185;-64
2023/09/28 10:28:33;;;;;;;15.30;3.55;;;20.80;99.90;;;;;;4863589;29;20174;-63
2023/09/28 10:31:10;;;;;;;12.20;3.63;;;21.00;99.90;;;;;;4863427;29;20182;-62
2023/09/28 10:33:54;;;;;;;15.82;3.17;;;20.80;99.90;;;;;;4863432;29;20186;-63
2023/09/28 10:36:21;;;;;;;18.08;3.85;;;20.70;99.90;;;;;;4863249;29;20201;-61
2023/09/28 10:38:46;;;;;;;13.48;3.45;;;20.60;99.90;;;;;;4863810;29;20189;-63
2023/09/28 10:41:12;;;;;;;11.40;3.25;;;20.40;99.90;;;;;;4863436;29;20539;-63
2023/09/28 10:43:40;;;;;;;12.88;3.45;;;20.40;99.90;;;;;;4863364;29;20260;-63
2023/09/28 10:46:07;;;;;;;11.95;3.63;;;20.30;99.90;;;;;;4863296;29;20527;-63
2023/09/28 10:48:44;;;;;;;13.70;4.00;;;20.10;99.90;;;;;;4863029;29;20183;-63
2023/09/28 10:51:14;;;;;;;14.48;3.95;;;20.20;99.90;;;;;;4863119;29;20230;-63
2023/09/28 10:53:39;;;;;;;10.57;3.25;;;20.30;99.90;;;;;;4863178;29;20185;-63
2023/09/28 10:56:06;;;;;;;11.95;3.40;;;20.50;99.90;;;;;;4863056;29;20214;-64
2023/09/28 10:58:34;;;;;;;9.93;3.13;;;20.50;99.90;;;;;;4863035;29;20182;-63
2023/09/28 11:01:04;;;;;;;11.77;2.60;;;20.60;99.90;;;;;;4862805;29;20200;-63
2023/09/28 11:03:31;;;;;;;8.80;2.67;;;20.70;99.90;;;;;;4862862;29;20182;-63
2023/09/28 11:05:58;;;;;;;9.60;3.25;;;20.70;99.90;;;;;;4862813;29;20699;-63
2023/09/28 11:08:25;;;;;;;9.43;3.30;;;20.80;99.90;;;;;;4862765;29;20289;-63
2023/09/28 11:10:55;;;;;;;8.73;2.85;;;21.10;99.90;;;;;;4862787;29;20178;-63
2023/09/28 11:13:21;;;;;;;10.10;2.88;;;21.20;99.90;;;;;;4863146;29;20528;-63
2023/09/28 11:15:47;;;;;;;11.07;2.78;;;21.20;99.90;;;;;;4862728;29;20202;-63
2023/09/28 11:18:13;;;;;;;9.35;2.67;;;21.10;99.90;;;;;;4862729;29;20671;-63
2023/09/28 11:20:38;;;;;;;12.10;2.67;;;20.80;99.90;;;;;;4862838;29;20227;-64
2023/09/28 11:23:04;;;;;;;13.75;3.50;;;20.70;99.90;;;;;;4862554;29;20643;-63
2023/09/28 11:25:30;;;;;;;10.07;3.33;;;20.60;99.90;;;;;;4862442;29;20599;-63
2023/09/28 11:27:56;;;;;;;10.05;2.95;;;20.70;99.90;;;;;;4862510;29;20178;-63
2023/09/28 11:30:21;;;;;;;9.43;2.75;;;20.80;99.90;;;;;;4862339;29;20182;-63
2023/09/28 11:32:51;;;;;;;10.15;2.88;;;21.00;99.90;;;;;;4862506;29;20181;-64
2023/09/28 11:35:23;;;;;;;12.73;2.90;;;21.10;99.90;;;;;;4862441;29;20210;-64
2023/09/28 11:37:51;;;;;;;10.75;3.05;;;21.00;99.90;;;;;;4861270;29;20194;-63
2023/09/28 11:40:16;;;;;;;12.35;3.20;;;21.00;99.90;;;;;;4862275;29;20250;-64
2023/09/28 11:42:45;;;;;;;9.40;2.63;;;21.00;99.90;;;;;;4862156;29;20186;-63
2023/09/28 11:45:12;;;;;;;10.23;2.65;;;20.90;99.90;;;;;;4861984;29;20234;-63
2023/09/28 11:47:38;;;;;;;11.82;2.65;;;20.90;99.90;;;;;;4862004;29;20686;-64
2023/09/28 11:50:07;;;;;;;9.80;2.80;;;21.00;99.90;;;;;;4862142;29;20182;-64
2023/09/28 11:52:34;;;;;;;12.80;3.13;;;21.20;99.90;;;;;;4862096;29;20178;-63
2023/09/28 11:55:01;;;;;;;8.15;2.72;;;21.30;99.90;;;;;;4861917;29;20282;-63
2023/09/28 11:57:27;;;;;;;10.00;3.13;;;21.20;99.90;;;;;;4861880;29;20190;-63
2023/09/28 11:59:53;;;;;;;10.20;3.00;;;21.20;99.90;;;;;;4861777;29;20658;-63
2023/09/28 12:02:19;;;;;;;9.63;3.03;;;21.40;99.90;;;;;;4861660;29;20178;-63
2023/09/28 12:04:45;;;;;;;11.82;3.42;;;21.40;99.90;;;;;;4861806;29;20253;-63
2023/09/28 12:07:11;;;;;;;9.30;2.85;;;21.30;99.90;;;;;;4861884;29;20206;-63
2023/09/28 12:09:37;;;;;;;8.38;3.08;;;21.30;99.90;;;;;;4861657;29;20596;-64
2023/09/28 12:12:03;;;;;;;8.95;3.10;;;21.20;99.90;;;;;;4845005;29;20186;-63
2023/09/28 12:14:28;;;;;;;10.73;2.60;;;21.30;99.90;;;;;;4861393;29;20185;-67
2023/09/28 12:16:56;;;;;;;11.27;2.92;;;21.40;99.90;;;;;;4861849;29;20190;-64
2023/09/28 12:19:22;;;;;;;11.68;2.88;;;21.50;99.90;;;;;;4861571;29;20241;-64
2023/09/28 12:21:47;;;;;;;11.25;2.35;;;21.50;99.90;;;;;;4861507;29;20265;-64
2023/09/28 12:24:13;;;;;;;11.45;3.53;;;21.40;99.90;;;;;;4844826;29;20269;-64
2023/09/28 12:26:39;;;;;;;12.18;3.35;;;21.20;99.90;;;;;;4861524;29;20778;-65
2023/09/28 12:29:05;;;;;;;10.88;3.33;;;21.20;99.90;;;;;;4861177;29;20193;-63
2023/09/28 12:31:31;;;;;;;9.77;3.28;;;21.20;99.90;;;;;;4861551;29;20182;-63
2023/09/28 12:33:56;;;;;;;12.88;3.20;;;21.40;99.90;;;;;;4861309;29;20189;-63
2023/09/28 12:36:23;;;;;;;10.35;3.20;;;21.50;99.90;;;;;;4861199;29;20209;-64
2023/09/28 12:38:51;;;;;;;10.27;3.35;;;21.50;99.90;;;;;;4861202;29;20182;-64
2023/09/28 12:41:17;;;;;;;9.65;3.42;;;21.50;99.90;;;;;;4861179;29;20178;-63
2023/09/28 12:43:44;;;;;;;13.13;3.50;;;21.40;99.90;;;;;;4861042;29;20205;-64